Time;durP1;ratioP1;P1;durP2;ratioP2;P2;SDS_P1;SDS_P2;PMS_P1;PMS_P2;Temp;Humidity;BMP_temperature;BMP_pressure;BME280_temperature;BME280_humidity;BME280_pressure;Samples;Min_cycle;Max_cycle;Signal;HPM_P1;HPM_P2
2022/06/20 00:01:09;;;;;;;7.22;3.45;;;17.60;59.70;;;;;;5037998;28;20044;-75
2022/06/20 00:03:41;;;;;;;8.98;3.65;;;17.60;59.70;;;;;;5036559;28;20087;-74
2022/06/20 00:06:13;;;;;;;6.97;2.78;;;17.60;59.80;;;;;;5037966;28;20091;-74
2022/06/20 00:08:40;;;;;;;6.63;2.88;;;17.60;59.80;;;;;;5043337;28;20021;-74
2022/06/20 00:11:06;;;;;;;5.65;3.28;;;17.50;59.60;;;;;;5043176;28;20037;-75
2022/06/20 00:13:34;;;;;;;6.10;3.05;;;17.50;59.60;;;;;;5040344;28;20228;-73
2022/06/20 00:16:01;;;;;;;15.90;4.78;;;17.50;59.80;;;;;;5013716;28;20029;-75
2022/06/20 00:18:29;;;;;;;7.55;3.78;;;17.50;59.80;;;;;;5025192;28;20040;-74
2022/06/20 00:20:56;;;;;;;6.65;2.80;;;17.40;59.70;;;;;;5043551;28;20171;-74
2022/06/20 00:23:22;;;;;;;6.85;3.63;;;17.40;59.80;;;;;;5034270;28;20028;-75
2022/06/20 00:25:48;;;;;;;9.80;3.50;;;17.40;59.80;;;;;;5028567;28;20036;-74
2022/06/20 00:28:16;;;;;;;9.32;4.18;;;17.40;59.90;;;;;;5035001;28;20392;-74
2022/06/20 00:30:43;;;;;;;7.82;3.60;;;17.40;60.00;;;;;;5033675;28;20112;-74
2022/06/20 00:33:10;;;;;;;5.40;2.88;;;17.30;59.90;;;;;;5017558;28;20032;-76
2022/06/20 00:35:37;;;;;;;6.80;3.45;;;17.30;60.00;;;;;;5018550;28;20439;-75
2022/06/20 00:38:05;;;;;;;7.68;3.30;;;17.30;60.00;;;;;;5038294;28;20477;-73
2022/06/20 00:40:43;;;;;;;4.15;3.10;;;17.20;59.90;;;;;;5031142;28;20049;-75
2022/06/20 00:43:14;;;;;;;9.77;3.72;;;17.20;60.00;;;;;;5032728;28;20033;-74
2022/06/20 00:45:44;;;;;;;6.45;3.30;;;17.20;60.00;;;;;;5021638;28;20128;-74
2022/06/20 00:48:22;;;;;;;6.43;3.10;;;17.20;60.10;;;;;;5033018;28;20076;-74
2022/06/20 00:50:51;;;;;;;6.72;3.55;;;17.10;60.00;;;;;;5034551;28;20039;-74
2022/06/20 00:53:56;;;;;;;8.30;3.10;;;17.10;60.00;;;;;;5030386;28;20543;-74
2022/06/20 00:56:50;;;;;;;6.72;3.20;;;17.10;60.20;;;;;;5032577;28;20463;-73
2022/06/20 00:59:23;;;;;;;7.72;3.75;;;17.10;60.20;;;;;;5031378;28;20555;-75
2022/06/20 01:01:49;;;;;;;;;;;17.00;60.00;;;;;;5035036;28;20047;-75
2022/06/20 01:04:41;;;;;;;8.02;3.03;;;17.00;60.00;;;;;;5030745;28;20953;-74
2022/06/20 01:07:12;;;;;;;5.15;2.95;;;17.00;60.00;;;;;;5007740;28;20036;-74
2022/06/20 01:09:42;;;;;;;5.95;3.58;;;16.90;59.80;;;;;;5027612;28;20033;-74
2022/06/20 01:12:19;;;;;;;7.07;3.33;;;16.90;60.00;;;;;;5035630;28;20036;-73
2022/06/20 01:14:45;;;;;;;9.68;3.72;;;16.90;60.10;;;;;;5030791;28;20029;-75
2022/06/20 01:17:25;;;;;;;6.47;3.20;;;16.80;60.00;;;;;;5024613;28;20073;-74
2022/06/20 01:20:02;;;;;;;9.85;3.08;;;16.80;60.20;;;;;;5032504;28;20064;-74
2022/06/20 01:23:03;;;;;;;8.35;3.08;;;16.80;60.20;;;;;;5030355;28;20033;-74
2022/06/20 01:25:44;;;;;;;5.43;3.38;;;16.70;60.20;;;;;;5031651;28;20033;-75
2022/06/20 01:28:14;;;;;;;5.32;3.42;;;16.60;60.10;;;;;;5032399;28;20053;-75
2022/06/20 01:30:43;;;;;;;4.75;2.85;;;16.60;60.10;;;;;;5030692;28;20032;-75
2022/06/20 01:33:11;;;;;;;6.68;3.70;;;16.60;60.30;;;;;;5031344;28;20369;-74
2022/06/20 01:38:24;;;;;;;5.40;3.40;;;16.50;60.30;;;;;;5032490;28;20029;-74
2022/06/20 01:43:37;;;;;;;6.20;3.75;;;16.50;60.40;;;;;;5034360;28;20357;-75
2022/06/20 01:46:09;;;;;;;5.38;2.72;;;16.40;60.30;;;;;;5011197;28;20039;-74
2022/06/20 01:48:39;;;;;;;5.63;2.22;;;16.40;60.40;;;;;;5007381;28;20049;-73
2022/06/20 01:51:12;;;;;;;4.97;2.42;;;16.40;60.40;;;;;;5035639;28;20210;-73
2022/06/20 01:53:37;;;;;;;;;;;16.30;60.30;;;;;;5031025;28;20496;-75
2022/06/20 01:56:05;;;;;;;4.78;2.50;;;16.30;60.20;;;;;;5033722;28;19948;-74
2022/06/20 01:58:38;;;;;;;5.63;2.58;;;16.30;60.10;;;;;;5016669;28;20065;-74
2022/06/20 02:01:04;;;;;;;;;;;16.30;60.30;;;;;;5035189;28;20421;-75
2022/06/20 02:03:35;;;;;;;4.60;2.10;;;16.30;60.20;;;;;;5032056;28;19995;-75
2022/06/20 02:06:02;;;;;;;5.15;2.85;;;16.10;59.80;;;;;;5018080;28;20036;-74
2022/06/20 02:08:28;;;;;;;5.05;2.55;;;16.10;59.90;;;;;;5036776;28;20578;-74
2022/06/20 02:11:11;;;;;;;3.83;2.08;;;16.20;60.10;;;;;;5035865;28;20029;-74
2022/06/20 02:13:42;;;;;;;6.90;2.65;;;16.10;60.10;;;;;;5034862;28;20051;-75
2022/06/20 02:16:10;;;;;;;6.15;2.30;;;16.10;60.10;;;;;;5038437;28;20045;-75
2022/06/20 02:18:41;;;;;;;3.67;2.33;;;16.00;60.00;;;;;;5035771;28;20032;-73
2022/06/20 02:21:14;;;;;;;6.07;2.55;;;16.00;60.10;;;;;;5032078;28;20033;-75
2022/06/20 02:23:46;;;;;;;4.25;2.58;;;16.00;60.10;;;;;;5035653;28;20024;-75
2022/06/20 02:26:14;;;;;;;5.25;2.70;;;15.90;60.50;;;;;;5034236;28;20032;-74
2022/06/20 02:28:56;;;;;;;5.85;2.47;;;15.90;60.50;;;;;;5036545;28;20068;-74
2022/06/20 02:31:23;;;;;;;3.55;2.45;;;15.80;60.00;;;;;;5032086;28;20195;-73
2022/06/20 02:33:49;;;;;;;4.30;2.53;;;15.80;59.90;;;;;;5032978;28;20037;-74
2022/06/20 02:36:15;;;;;;;4.47;2.20;;;15.70;59.80;;;;;;5019449;28;20496;-74
2022/06/20 02:38:43;;;;;;;4.63;1.88;;;15.80;60.00;;;;;;5029994;28;20033;-74
2022/06/20 02:41:11;;;;;;;5.97;2.38;;;15.70;59.80;;;;;;5032703;28;20038;-75
2022/06/20 02:43:43;;;;;;;4.55;1.88;;;15.70;59.90;;;;;;5040659;28;20029;-75
2022/06/20 02:46:13;;;;;;;3.97;1.80;;;15.70;60.00;;;;;;5017771;28;20978;-75
2022/06/20 02:48:43;;;;;;;2.60;1.50;;;15.60;59.70;;;;;;5037365;28;20313;-75
2022/06/20 02:51:15;;;;;;;3.63;1.80;;;15.60;59.80;;;;;;5024328;28;20393;-75
2022/06/20 02:53:59;;;;;;;3.60;2.35;;;15.60;59.80;;;;;;5038813;28;20037;-74
2022/06/20 02:56:30;;;;;;;2.03;1.42;;;15.50;59.70;;;;;;5036121;28;20033;-74
2022/06/20 02:59:04;;;;;;;3.00;1.58;;;15.50;59.60;;;;;;5035822;28;20470;-74
2022/06/20 03:01:43;;;;;;;3.15;1.50;;;15.50;59.60;;;;;;5020132;28;20214;-74
2022/06/20 03:04:10;;;;;;;3.85;2.00;;;15.50;59.70;;;;;;5018598;28;20056;-73
2022/06/20 03:06:50;;;;;;;3.65;2.00;;;15.50;59.60;;;;;;5038314;28;20029;-74
2022/06/20 03:09:24;;;;;;;3.08;1.42;;;15.40;59.50;;;;;;5040685;28;20032;-74
2022/06/20 03:11:51;;;;;;;3.80;1.67;;;15.40;59.50;;;;;;5037294;28;20068;-74
2022/06/20 03:14:20;;;;;;;3.13;1.58;;;15.40;59.50;;;;;;5043962;28;20033;-74
2022/06/20 03:16:46;;;;;;;2.90;1.60;;;15.40;59.50;;;;;;5038755;28;20128;-74
2022/06/20 03:19:20;;;;;;;2.42;1.40;;;15.30;59.30;;;;;;5040346;28;20124;-74
2022/06/20 03:21:47;;;;;;;3.60;1.80;;;15.30;59.30;;;;;;5033559;28;20040;-74
2022/06/20 03:24:18;;;;;;;3.97;1.52;;;15.30;59.30;;;;;;5021396;28;20488;-74
2022/06/20 03:26:45;;;;;;;6.22;2.90;;;15.30;59.40;;;;;;5034519;28;20041;-74
2022/06/20 03:29:16;;;;;;;4.47;1.70;;;15.20;59.30;;;;;;5036538;28;20384;-74
2022/06/20 03:31:43;;;;;;;3.78;1.45;;;15.20;59.30;;;;;;5038524;28;20036;-74
2022/06/20 03:34:10;;;;;;;3.85;1.83;;;15.20;59.30;;;;;;5037350;28;20025;-75
2022/06/20 03:36:36;;;;;;;3.65;1.50;;;15.20;59.30;;;;;;5019805;28;20410;-74
2022/06/20 03:39:04;;;;;;;2.30;1.75;;;15.10;59.20;;;;;;5034456;28;20439;-74
2022/06/20 03:41:30;;;;;;;3.92;2.17;;;15.10;59.20;;;;;;5021121;28;20188;-74
2022/06/20 03:43:58;;;;;;;4.32;1.90;;;15.10;59.20;;;;;;5044774;28;20164;-74
2022/06/20 03:46:49;;;;;;;3.97;1.40;;;15.10;59.30;;;;;;5037450;28;20083;-74
2022/06/20 03:49:27;;;;;;;5.22;1.95;;;15.10;59.40;;;;;;5032607;28;20038;-74
2022/06/20 03:52:01;;;;;;;3.38;1.67;;;15.00;59.20;;;;;;5026337;28;20045;-74
2022/06/20 03:54:34;;;;;;;3.78;1.58;;;15.00;59.20;;;;;;5039409;28;20659;-74
2022/06/20 03:57:06;;;;;;;2.65;1.80;;;15.00;59.20;;;;;;5039431;28;20036;-74
2022/06/20 03:59:56;;;;;;;4.07;1.67;;;15.00;59.20;;;;;;5023166;28;20512;-74
2022/06/20 04:02:29;;;;;;;3.42;1.42;;;15.00;59.30;;;;;;5034304;28;20044;-74
2022/06/20 04:05:22;;;;;;;5.00;1.85;;;14.90;59.10;;;;;;5037372;28;20040;-74
2022/06/20 04:08:01;;;;;;;3.95;2.17;;;14.90;59.20;;;;;;5034617;28;20022;-75
2022/06/20 04:13:25;;;;;;;4.03;1.60;;;14.90;59.20;;;;;;5019181;28;20040;-73
2022/06/20 04:16:01;;;;;;;2.63;1.17;;;14.90;59.20;;;;;;5030390;28;20497;-74
2022/06/20 04:18:38;;;;;;;4.85;1.60;;;14.90;59.30;;;;;;5017156;28;20027;-76
2022/06/20 04:21:17;;;;;;;6.88;1.60;;;14.90;59.30;;;;;;5028627;28;20037;-75
2022/06/20 04:24:02;;;;;;;4.15;1.75;;;14.90;59.30;;;;;;5036647;28;20026;-74
2022/06/20 04:26:41;;;;;;;3.92;1.38;;;14.90;59.40;;;;;;5033844;28;20045;-73
2022/06/20 04:29:17;;;;;;;2.55;1.13;;;14.90;59.30;;;;;;5035722;28;20041;-73
2022/06/20 04:31:49;;;;;;;3.20;1.83;;;14.90;59.30;;;;;;5040322;28;20396;-77
2022/06/20 04:34:18;;;;;;;4.30;1.85;;;14.90;59.30;;;;;;5039019;28;20078;-75
2022/06/20 04:36:53;;;;;;;2.72;1.60;;;14.90;59.30;;;;;;5024247;28;20048;-73
2022/06/20 04:39:39;;;;;;;5.85;1.50;;;14.90;59.30;;;;;;5020495;28;20044;-74
2022/06/20 04:42:20;;;;;;;2.08;1.25;;;14.90;59.40;;;;;;5035848;28;20459;-73
2022/06/20 04:44:55;;;;;;;3.40;1.48;;;14.90;59.40;;;;;;5035305;28;20024;-74
2022/06/20 04:47:35;;;;;;;3.92;1.50;;;14.90;59.40;;;;;;5032187;28;20047;-74
2022/06/20 04:50:06;;;;;;;4.60;1.90;;;14.90;59.40;;;;;;5029838;28;20638;-75
2022/06/20 04:52:33;;;;;;;2.47;1.35;;;14.90;59.40;;;;;;5021543;28;20260;-74
2022/06/20 04:55:00;;;;;;;2.70;1.38;;;14.90;59.40;;;;;;5031837;28;20612;-74
2022/06/20 04:57:28;;;;;;;2.38;1.80;;;14.90;59.40;;;;;;5017295;28;20037;-75
2022/06/20 04:59:59;;;;;;;2.08;1.15;;;14.90;59.40;;;;;;5034781;28;20044;-74
2022/06/20 05:02:26;;;;;;;1.52;1.13;;;14.90;59.50;;;;;;5034904;28;20407;-74
2022/06/20 05:04:55;;;;;;;2.35;1.35;;;14.90;59.40;;;;;;5011990;28;20585;-75
2022/06/20 05:07:31;;;;;;;1.65;1.23;;;14.90;59.50;;;;;;5030820;28;20318;-75
2022/06/20 05:10:15;;;;;;;2.45;1.50;;;14.90;59.50;;;;;;5029230;28;20040;-74
2022/06/20 05:12:48;;;;;;;4.90;1.40;;;15.00;59.80;;;;;;5034609;28;20025;-74
2022/06/20 05:15:43;;;;;;;4.13;1.45;;;15.00;59.70;;;;;;5029602;28;20411;-74
2022/06/20 05:18:39;;;;;;;4.72;1.85;;;15.00;59.70;;;;;;4993928;28;20226;-73
2022/06/20 05:21:24;;;;;;;3.75;1.35;;;15.00;59.60;;;;;;5013543;28;20047;-74
2022/06/20 05:23:54;;;;;;;3.92;1.52;;;15.00;59.60;;;;;;5024459;28;20854;-73
2022/06/20 05:26:27;;;;;;;3.45;1.33;;;15.10;59.70;;;;;;5027332;28;20032;-74
2022/06/20 05:28:57;;;;;;;3.67;1.30;;;15.10;59.70;;;;;;5032150;28;20112;-74
2022/06/20 05:31:42;;;;;;;3.38;1.92;;;15.10;59.70;;;;;;5029428;28;20025;-74
2022/06/20 05:34:30;;;;;;;4.22;1.42;;;15.10;59.70;;;;;;5030312;28;20459;-73
2022/06/20 05:37:06;;;;;;;3.17;1.25;;;15.20;59.90;;;;;;5026730;28;20044;-75
2022/06/20 05:39:37;;;;;;;3.13;1.70;;;15.20;59.90;;;;;;5036753;28;20036;-75
2022/06/20 05:42:04;;;;;;;2.28;1.15;;;15.20;59.80;;;;;;5032555;28;20037;-75
2022/06/20 05:44:30;;;;;;;2.63;1.27;;;15.20;59.80;;;;;;5026783;28;20049;-74
2022/06/20 05:47:05;;;;;;;4.30;1.35;;;15.20;59.80;;;;;;5030255;28;20567;-75
2022/06/20 05:49:52;;;;;;;2.88;1.08;;;15.30;60.00;;;;;;5027283;28;20032;-74
2022/06/20 05:52:23;;;;;;;4.70;1.58;;;15.30;60.10;;;;;;5013971;28;20423;-76
2022/06/20 05:55:03;;;;;;;5.47;1.58;;;15.30;60.00;;;;;;5010021;28;20036;-76
2022/06/20 05:57:32;;;;;;;4.80;1.60;;;15.30;60.00;;;;;;5015124;28;20082;-76
2022/06/20 06:00:02;;;;;;;7.22;2.40;;;15.40;60.00;;;;;;5011131;28;20042;-75
2022/06/20 06:03:05;;;;;;;4.50;2.00;;;15.50;60.10;;;;;;5028921;28;20396;-73
2022/06/20 06:05:41;;;;;;;5.37;1.87;;;15.50;60.30;;;;;;5018941;28;20037;-74
2022/06/20 06:08:16;;;;;;;4.70;1.92;;;15.60;60.10;;;;;;5018773;28;20766;-75
2022/06/20 06:10:47;;;;;;;4.00;1.60;;;15.70;59.90;;;;;;5028625;28;20032;-74
2022/06/20 06:13:33;;;;;;;5.18;1.60;;;15.70;59.60;;;;;;5028503;28;20026;-75
2022/06/20 06:19:18;;;;;;;7.10;2.45;;;15.90;59.70;;;;;;5036732;28;20040;-75
2022/06/20 06:21:47;;;;;;;10.48;3.38;;;16.10;60.50;;;;;;4985596;28;20036;-74
2022/06/20 06:24:17;;;;;;;6.45;1.92;;;16.30;60.50;;;;;;5010912;28;20037;-77
2022/06/20 06:26:47;;;;;;;4.25;1.58;;;16.40;60.60;;;;;;5012824;28;20211;-76
2022/06/20 06:29:31;;;;;;;6.30;2.22;;;16.60;60.70;;;;;;5013878;28;20392;-76
2022/06/20 06:32:01;;;;;;;6.80;2.10;;;16.90;60.80;;;;;;5036359;28;20037;-76
2022/06/20 06:34:49;;;;;;;3.67;1.30;;;17.20;60.30;;;;;;5039909;28;20064;-75
2022/06/20 06:37:23;;;;;;;6.68;2.75;;;17.70;60.00;;;;;;5039433;28;20060;-77
2022/06/20 06:40:10;;;;;;;3.75;1.67;;;18.30;59.10;;;;;;5015681;28;20310;-74
2022/06/20 06:42:39;;;;;;;7.60;1.73;;;19.00;57.70;;;;;;5032420;28;20381;-75
2022/06/20 06:45:06;;;;;;;3.80;1.50;;;19.60;56.80;;;;;;5031722;28;20029;-74
2022/06/20 06:47:42;;;;;;;5.05;1.80;;;20.20;56.20;;;;;;5016481;28;20272;-74
2022/06/20 06:50:31;;;;;;;6.43;1.38;;;20.70;55.40;;;;;;5030207;28;20033;-74
2022/06/20 06:53:04;;;;;;;5.10;1.98;;;21.10;54.60;;;;;;5014589;28;20033;-73
2022/06/20 06:55:40;;;;;;;2.85;1.65;;;21.60;54.40;;;;;;5035170;28;20033;-73
2022/06/20 06:58:16;;;;;;;3.75;1.83;;;22.00;54.10;;;;;;5015245;28;20046;-73
2022/06/20 07:00:49;;;;;;;4.95;1.77;;;22.40;53.60;;;;;;5017417;28;20151;-75
2022/06/20 07:03:24;;;;;;;4.78;1.40;;;22.80;53.50;;;;;;5033984;28;20032;-74
2022/06/20 07:06:10;;;;;;;4.38;1.20;;;23.10;53.00;;;;;;5021738;28;20032;-75
2022/06/20 07:08:44;;;;;;;5.22;1.48;;;23.50;52.60;;;;;;5030312;28;20037;-76
2022/06/20 07:11:21;;;;;;;5.32;1.88;;;23.90;52.80;;;;;;5012701;28;20021;-76
2022/06/20 07:14:16;;;;;;;4.80;1.60;;;24.20;52.60;;;;;;5030347;28;20497;-74
2022/06/20 07:16:54;;;;;;;5.32;1.52;;;24.60;52.00;;;;;;5009205;28;20514;-75
2022/06/20 07:19:20;;;;;;;5.10;2.40;;;24.90;52.10;;;;;;5034374;28;20040;-75
2022/06/20 07:21:47;;;;;;;4.75;1.73;;;25.00;52.20;;;;;;5011061;28;20053;-75
2022/06/20 07:24:22;;;;;;;5.20;2.20;;;24.90;51.90;;;;;;5019339;28;20480;-75
2022/06/20 07:27:07;;;;;;;5.53;2.00;;;24.90;51.60;;;;;;5032413;28;20043;-75
2022/06/20 07:29:44;;;;;;;4.32;2.00;;;24.80;51.30;;;;;;5018648;28;20074;-76
2022/06/20 07:32:19;;;;;;;5.05;1.45;;;24.90;51.50;;;;;;5019926;28;20021;-75
2022/06/20 07:34:55;;;;;;;4.93;1.25;;;25.20;50.80;;;;;;5033291;28;20040;-76
2022/06/20 07:37:34;;;;;;;4.00;1.40;;;25.80;49.70;;;;;;5033911;28;20048;-75
2022/06/20 07:40:09;;;;;;;8.43;3.08;;;26.20;48.60;;;;;;5030478;28;20049;-74
2022/06/20 07:42:51;;;;;;;4.57;1.20;;;26.70;47.60;;;;;;5034586;28;20052;-74
2022/06/20 07:45:28;;;;;;;3.80;1.02;;;27.00;46.50;;;;;;5037249;28;20033;-76
2022/06/20 07:48:03;;;;;;;4.82;1.77;;;27.30;46.20;;;;;;5013398;28;20496;-76
2022/06/20 07:50:44;;;;;;;5.55;1.38;;;27.60;45.30;;;;;;5015781;28;20028;-75
2022/06/20 07:53:33;;;;;;;3.00;1.27;;;28.00;44.40;;;;;;5032234;28;20083;-75
2022/06/20 07:56:05;;;;;;;3.33;1.40;;;28.30;44.10;;;;;;5016893;28;20051;-76
2022/06/20 07:58:36;;;;;;;5.25;1.52;;;28.70;43.50;;;;;;5034565;28;20029;-75
2022/06/20 08:01:15;;;;;;;2.53;1.40;;;29.00;42.90;;;;;;5014970;28;20505;-75
2022/06/20 08:03:52;;;;;;;5.78;1.83;;;29.10;42.20;;;;;;5035629;28;20033;-75
2022/06/20 08:06:39;;;;;;;5.00;1.70;;;28.80;42.20;;;;;;5029580;28;20025;-74
2022/06/20 08:09:40;;;;;;;2.78;1.40;;;28.30;42.80;;;;;;5033513;28;20037;-77
2022/06/20 08:12:15;;;;;;;4.68;1.50;;;27.80;43.50;;;;;;5025491;28;20171;-76
2022/06/20 08:14:49;;;;;;;3.92;1.58;;;27.30;44.50;;;;;;5018058;28;20051;-76
2022/06/20 08:17:15;;;;;;;6.07;1.90;;;26.90;44.90;;;;;;5034982;28;20032;-74
2022/06/20 08:19:43;;;;;;;5.00;1.70;;;26.70;45.40;;;;;;5032157;28;20029;-74
2022/06/20 08:22:32;;;;;;;3.38;1.63;;;26.50;45.30;;;;;;5013319;28;20025;-76
2022/06/20 08:25:12;;;;;;;6.28;1.73;;;26.40;45.30;;;;;;5026537;28;20040;-77
2022/06/20 08:27:43;;;;;;;4.05;1.30;;;26.20;45.20;;;;;;5033682;28;20021;-75
2022/06/20 08:30:16;;;;;;;4.70;1.33;;;26.10;45.30;;;;;;5034749;28;20033;-75
2022/06/20 08:33:01;;;;;;;4.55;1.95;;;26.00;45.10;;;;;;5033530;28;20769;-75
2022/06/20 08:35:49;;;;;;;4.68;1.88;;;25.90;44.90;;;;;;5030574;28;20037;-76
2022/06/20 08:38:20;;;;;;;3.95;1.63;;;25.80;44.90;;;;;;4998444;28;20112;-76
2022/06/20 08:41:15;;;;;;;4.50;1.80;;;25.80;45.10;;;;;;5016621;28;20045;-75
2022/06/20 08:44:08;;;;;;;3.10;1.38;;;25.80;44.70;;;;;;5019946;28;20452;-75
2022/06/20 08:46:39;;;;;;;3.35;0.98;;;25.80;44.70;;;;;;5016458;28;20401;-75
2022/06/20 08:49:08;;;;;;;4.55;1.92;;;25.70;44.70;;;;;;5033317;28;20033;-75
2022/06/20 08:52:06;;;;;;;2.60;1.27;;;25.60;44.80;;;;;;5015083;28;20029;-74
2022/06/20 08:54:53;;;;;;;4.70;1.30;;;25.50;44.80;;;;;;5031613;28;20125;-75
2022/06/20 08:57:55;;;;;;;8.88;1.40;;;25.40;44.90;;;;;;5029569;28;20104;-77
2022/06/20 09:00:31;;;;;;;4.30;1.30;;;25.40;44.70;;;;;;5030603;28;20048;-75
2022/06/20 09:03:39;;;;;;;3.03;1.45;;;25.50;44.80;;;;;;5031514;28;20041;-74
2022/06/20 09:06:34;;;;;;;5.47;1.70;;;25.60;44.60;;;;;;5028392;28;20056;-74
2022/06/20 09:09:28;;;;;;;4.88;1.85;;;25.80;44.50;;;;;;5031328;28;20029;-76
2022/06/20 09:12:06;;;;;;;4.05;1.73;;;26.00;44.20;;;;;;5028726;28;20380;-75
2022/06/20 09:14:53;;;;;;;2.53;1.13;;;26.20;44.20;;;;;;5034653;28;20092;-75
2022/06/20 09:17:42;;;;;;;4.13;1.85;;;26.30;44.20;;;;;;5030400;28;20152;-75
2022/06/20 09:20:22;;;;;;;2.78;1.30;;;26.60;43.90;;;;;;5034810;28;20519;-74
2022/06/20 09:22:55;;;;;;;1.90;1.10;;;26.70;43.70;;;;;;5015367;28;20543;-75
2022/06/20 09:25:45;;;;;;;8.07;1.60;;;26.90;43.80;;;;;;5034408;28;20363;-74
2022/06/20 09:28:46;;;;;;;4.05;1.42;;;27.00;43.50;;;;;;5030156;28;20025;-74
2022/06/20 09:31:18;;;;;;;3.53;1.20;;;27.20;43.20;;;;;;5015065;28;20094;-74
2022/06/20 09:33:59;;;;;;;3.03;1.33;;;27.40;43.30;;;;;;5033530;28;20037;-75
2022/06/20 09:37:02;;;;;;;2.47;1.20;;;27.40;43.20;;;;;;5025278;28;20024;-75
2022/06/20 09:40:10;;;;;;;2.45;1.35;;;27.40;43.00;;;;;;5031643;28;20029;-74
2022/06/20 09:43:07;;;;;;;2.63;1.40;;;27.40;43.10;;;;;;5005298;28;20049;-75
2022/06/20 09:45:48;;;;;;;3.17;1.50;;;27.50;43.10;;;;;;5013141;28;20096;-76
2022/06/20 09:48:17;;;;;;;7.45;2.08;;;27.70;43.00;;;;;;5031742;28;20049;-74
2022/06/20 09:51:04;;;;;;;3.33;2.10;;;28.00;43.00;;;;;;5034154;28;20035;-74
2022/06/20 09:53:50;;;;;;;3.53;1.27;;;28.30;42.50;;;;;;5015790;28;20531;-75
2022/06/20 09:56:45;;;;;;;4.60;1.52;;;28.60;42.40;;;;;;5015898;28;20148;-74
2022/06/20 09:59:42;;;;;;;3.45;1.55;;;29.00;41.70;;;;;;5018246;28;20029;-74
2022/06/20 10:02:33;;;;;;;1.70;1.20;;;29.30;41.40;;;;;;5008125;28;20456;-75
2022/06/20 10:05:19;;;;;;;5.05;1.52;;;29.40;41.30;;;;;;5018165;28;20060;-74
2022/06/20 10:08:14;;;;;;;4.05;1.98;;;29.50;41.10;;;;;;5001393;28;20484;-75
2022/06/20 10:10:53;;;;;;;2.40;1.30;;;29.70;40.80;;;;;;5027941;28;20029;-73
2022/06/20 10:13:25;;;;;;;4.68;1.52;;;29.90;40.60;;;;;;5030260;28;20175;-75
2022/06/20 10:16:00;;;;;;;2.72;1.45;;;30.00;40.40;;;;;;5030946;28;20044;-75
2022/06/20 10:19:10;;;;;;;4.05;1.55;;;29.80;39.70;;;;;;5031947;28;20112;-75
2022/06/20 10:21:50;;;;;;;5.82;2.30;;;29.40;39.40;;;;;;5005864;28;20056;-76
2022/06/20 10:24:51;;;;;;;3.22;1.48;;;29.10;39.80;;;;;;5037676;28;20029;-75
2022/06/20 10:27:32;;;;;;;3.90;1.30;;;28.70;39.60;;;;;;5038797;28;20032;-75
2022/06/20 10:30:04;;;;;;;3.13;1.60;;;28.60;39.80;;;;;;5019324;28;20567;-76
2022/06/20 10:32:40;;;;;;;2.65;1.48;;;28.40;39.50;;;;;;5040509;28;20051;-75
2022/06/20 10:35:16;;;;;;;4.10;1.98;;;28.40;39.40;;;;;;5034006;28;20240;-74
2022/06/20 10:38:03;;;;;;;3.17;1.42;;;28.30;39.20;;;;;;5004319;28;20033;-74
2022/06/20 10:41:01;;;;;;;3.65;1.65;;;28.20;38.70;;;;;;5038519;28;20082;-75
2022/06/20 10:43:42;;;;;;;4.50;1.55;;;28.00;38.70;;;;;;5036547;28;20561;-75
2022/06/20 10:46:23;;;;;;;4.07;1.45;;;27.90;39.00;;;;;;5035380;28;20377;-75
2022/06/20 10:49:16;;;;;;;3.22;1.52;;;27.80;39.10;;;;;;5032587;28;20052;-76
2022/06/20 10:51:48;;;;;;;4.13;1.65;;;27.70;39.10;;;;;;5030636;28;20172;-75
2022/06/20 10:54:14;;;;;;;2.40;1.50;;;27.80;39.30;;;;;;5004592;28;20044;-75
2022/06/20 10:56:43;;;;;;;2.70;1.20;;;28.00;39.30;;;;;;5036362;28;20464;-75
2022/06/20 10:59:44;;;;;;;3.97;1.60;;;28.20;39.10;;;;;;5038130;28;20029;-75
2022/06/20 11:02:18;;;;;;;2.28;1.35;;;28.40;38.80;;;;;;4956847;28;20050;-74
2022/06/20 11:05:08;;;;;;;4.47;1.42;;;28.70;38.60;;;;;;5004671;28;20030;-76
2022/06/20 11:07:45;;;;;;;5.20;1.48;;;28.90;38.40;;;;;;5017692;28;20028;-75
2022/06/20 11:10:43;;;;;;;3.17;1.88;;;29.10;38.00;;;;;;5035933;28;20071;-76
2022/06/20 11:13:23;;;;;;;3.97;1.35;;;29.10;37.60;;;;;;5005724;28;20135;-77
2022/06/20 11:16:16;;;;;;;3.05;1.77;;;29.00;37.50;;;;;;5031816;28;20037;-75
2022/06/20 11:19:02;;;;;;;;;;;29.00;37.30;;;;;;5038039;28;20088;-75
2022/06/20 11:21:41;;;;;;;4.13;1.50;;;28.90;37.90;;;;;;5021808;28;19920;-76
2022/06/20 11:24:30;;;;;;;4.82;1.88;;;28.90;37.80;;;;;;5032722;28;20095;-74
2022/06/20 11:27:32;;;;;;;4.50;1.80;;;28.80;38.20;;;;;;5029040;28;20401;-76
2022/06/20 11:30:23;;;;;;;3.33;1.47;;;28.80;37.40;;;;;;5016175;28;20033;-76
2022/06/20 11:33:11;;;;;;;3.60;1.75;;;28.80;37.50;;;;;;5032638;28;20274;-76
2022/06/20 11:35:49;;;;;;;2.90;1.70;;;28.80;37.50;;;;;;5033554;28;20470;-76
2022/06/20 11:38:48;;;;;;;3.15;1.45;;;28.80;37.40;;;;;;5031594;28;20033;-75
2022/06/20 11:41:33;;;;;;;4.88;2.30;;;28.80;37.20;;;;;;5015970;28;20037;-76
2022/06/20 11:44:23;;;;;;;3.70;1.75;;;28.80;37.40;;;;;;5034679;28;20024;-74
2022/06/20 11:47:27;;;;;;;2.95;1.90;;;28.80;37.20;;;;;;5019420;28;20045;-75
2022/06/20 11:50:19;;;;;;;2.88;1.55;;;28.70;37.10;;;;;;4974843;28;20093;-77
2022/06/20 11:52:55;;;;;;;5.15;1.83;;;28.70;37.30;;;;;;4994280;28;20030;-76
2022/06/20 11:55:40;;;;;;;4.65;1.83;;;28.70;37.30;;;;;;5001267;28;20140;-74
2022/06/20 11:58:09;;;;;;;;;;;28.70;37.30;;;;;;5028281;28;20061;-76
2022/06/20 12:01:00;;;;;;;3.90;1.77;;;28.70;37.70;;;;;;5038910;28;19917;-74
2022/06/20 12:03:41;;;;;;;3.63;1.73;;;28.70;37.30;;;;;;5032943;28;20099;-75
2022/06/20 12:06:22;;;;;;;6.05;2.05;;;28.80;37.60;;;;;;4999509;28;20020;-76
2022/06/20 12:09:01;;;;;;;4.78;2.08;;;28.70;37.30;;;;;;5031739;28;20037;-75
2022/06/20 12:11:30;;;;;;;4.10;1.45;;;28.80;37.10;;;;;;5033488;28;20127;-76
2022/06/20 12:14:08;;;;;;;3.03;1.65;;;28.70;37.20;;;;;;5030223;28;20067;-76
2022/06/20 12:16:46;;;;;;;2.55;1.65;;;28.80;37.10;;;;;;5033839;28;20021;-77
2022/06/20 12:24:49;;;;;;;2.95;1.85;;;28.80;37.10;;;;;;5030880;28;20039;-78
2022/06/20 12:27:18;;;;;;;5.93;2.35;;;28.80;36.90;;;;;;5032460;28;20119;-74
2022/06/20 12:29:46;;;;;;;3.05;1.70;;;28.80;36.90;;;;;;5032784;28;20215;-75
2022/06/20 12:32:27;;;;;;;3.97;2.05;;;28.80;36.90;;;;;;5033506;28;20033;-75
2022/06/20 12:35:05;;;;;;;3.80;1.85;;;28.80;36.80;;;;;;5016782;28;20488;-76
2022/06/20 12:37:46;;;;;;;5.57;2.15;;;28.90;37.00;;;;;;5000920;28;20036;-75
2022/06/20 12:40:11;;;;;;;3.70;1.85;;;28.90;37.00;;;;;;5029735;28;20041;-76
2022/06/20 12:42:49;;;;;;;5.13;2.03;;;29.00;37.00;;;;;;5031301;28;20035;-75
2022/06/20 12:45:50;;;;;;;3.03;1.73;;;29.10;36.60;;;;;;5033721;28;20036;-76
2022/06/20 12:48:16;;;;;;;7.00;2.30;;;29.10;36.40;;;;;;4992972;28;20137;-75
2022/06/20 12:51:05;;;;;;;3.90;1.85;;;29.20;36.60;;;;;;5014774;28;20132;-75
2022/06/20 12:54:04;;;;;;;3.88;1.65;;;29.30;36.40;;;;;;5010058;28;20040;-74
2022/06/20 12:56:39;;;;;;;5.15;1.95;;;29.30;36.30;;;;;;5009664;28;20073;-75
2022/06/20 12:59:25;;;;;;;3.80;2.10;;;29.40;36.10;;;;;;5011338;28;20489;-75
2022/06/20 13:02:24;;;;;;;4.25;2.25;;;29.40;36.10;;;;;;5015556;28;20134;-75
2022/06/20 13:05:20;;;;;;;5.43;2.17;;;29.40;35.90;;;;;;5008046;28;20040;-75
2022/06/20 13:07:58;;;;;;;3.70;1.70;;;29.50;36.00;;;;;;5011809;28;20033;-74
2022/06/20 13:10:34;;;;;;;3.83;1.58;;;29.60;36.00;;;;;;5016675;28;20554;-78
2022/06/20 13:13:21;;;;;;;2.90;1.80;;;29.60;35.90;;;;;;5013322;28;20029;-76
2022/06/20 13:15:59;;;;;;;6.15;2.38;;;29.80;36.00;;;;;;5013073;28;20034;-76
2022/06/20 13:18:25;;;;;;;3.88;2.00;;;29.90;35.60;;;;;;5015686;28;20069;-76
2022/06/20 13:21:10;;;;;;;5.13;2.20;;;29.80;35.80;;;;;;5013346;28;20718;-76
2022/06/20 13:23:52;;;;;;;4.60;2.42;;;29.90;35.50;;;;;;5013223;28;20080;-76
2022/06/20 13:26:34;;;;;;;7.68;2.42;;;29.90;35.50;;;;;;5012294;28;20063;-75
2022/06/20 13:29:29;;;;;;;6.22;2.90;;;29.90;35.70;;;;;;5017495;28;20052;-75
2022/06/20 13:32:05;;;;;;;4.70;2.45;;;30.00;35.20;;;;;;5008154;28;20398;-76
2022/06/20 13:35:31;;;;;;;3.88;1.58;;;30.10;35.30;;;;;;5015788;28;20029;-76
2022/06/20 13:38:18;;;;;;;4.25;1.83;;;30.10;35.20;;;;;;4897107;29;20036;-77
2022/06/20 13:40:54;;;;;;;3.22;2.22;;;30.30;35.30;;;;;;4925537;29;20261;-75
2022/06/20 13:43:24;;;;;;;4.28;1.95;;;30.40;35.30;;;;;;4996098;28;20651;-76
2022/06/20 13:46:01;;;;;;;3.67;2.00;;;30.50;35.30;;;;;;5011735;28;20038;-74
2022/06/20 13:48:42;;;;;;;5.22;2.17;;;30.60;35.00;;;;;;5029044;28;20045;-75
2022/06/20 13:51:18;;;;;;;4.90;1.95;;;30.70;34.90;;;;;;4994279;28;20027;-75
2022/06/20 13:53:47;;;;;;;4.93;2.40;;;30.80;34.80;;;;;;5034320;28;20032;-75
2022/06/20 13:56:22;;;;;;;7.65;2.40;;;30.80;34.80;;;;;;5028111;28;20388;-76
2022/06/20 13:59:05;;;;;;;6.03;2.92;;;30.90;34.60;;;;;;5037107;28;20429;-75
2022/06/20 14:01:36;;;;;;;;;;;30.90;34.40;;;;;;5032549;28;20041;-76